Terminal Aerodrome Forecast
Issued by NWS Bismarck, ND

Home | Current Version | Previous Version | Text Only | Print | Product List | Glossary Off
Versions: 1 2 3 4 5 6 7 8 9 10 11 12 13 14 15 16 17 18 19 20 21 22 23 24 25 26

000
FTUS43 KBIS 310400 AAB
TAFBIS
TAF AMD
KBIS 310405Z 3104/3124 13009KT P6SM -SHRA VCTS BKN050CB
      TEMPO 3104/3108 3SM TSRA SCT015 BKN030CB
     FM311100 32008KT P6SM BKN015
     FM311600 31011KT P6SM SCT015 BKN050=

USA.gov is the U.S. government's official web portal to all federal, state and local government web resources and services.